Time;durP1;ratioP1;P1;durP2;ratioP2;P2;SDS_P1;SDS_P2;PMS_P1;PMS_P2;Temp;Humidity;BMP_temperature;BMP_pressure;BME280_temperature;BME280_humidity;BME280_pressure;Samples;Min_cycle;Max_cycle;Signal;HPM_P1;HPM_P2
2023/10/06 00:00:40;;;;;;;8.27;3.08;;;;;;;;;;4865480;29;20045;-76
2023/10/06 00:03:10;;;;;;;10.10;3.05;;;;;;;;;;4880900;29;20132;-77
2023/10/06 00:05:36;;;;;;;13.55;3.88;;;16.20;99.90;;;;;;4881076;29;20072;-76
2023/10/06 00:08:16;;;;;;;11.88;3.15;;;;;;;;;;4881359;29;20433;-76
2023/10/06 00:10:45;;;;;;;12.48;3.63;;;;;;;;;;4881069;29;20123;-77
2023/10/06 00:13:12;;;;;;;12.68;3.42;;;15.40;99.90;;;;;;4865620;29;20056;-76
2023/10/06 00:15:38;;;;;;;8.00;3.35;;;14.50;99.90;;;;;;4865521;29;20446;-76
2023/10/06 00:18:09;;;;;;;8.23;3.05;;;16.50;99.90;;;;;;4881059;29;20054;-77
2023/10/06 00:20:45;;;;;;;15.48;3.67;;;15.50;99.90;;;;;;4881058;29;20520;-76
2023/10/06 00:23:14;;;;;;;13.00;3.70;;;16.40;99.90;;;;;;4881029;29;20112;-77
2023/10/06 00:25:42;;;;;;;10.57;3.60;;;15.50;99.90;;;;;;4865617;29;20045;-77
2023/10/06 00:28:14;;;;;;;11.23;3.22;;;;;;;;;;4880788;29;20045;-76
2023/10/06 00:30:41;;;;;;;10.60;3.17;;;;;;;;;;4881124;29;20393;-77
2023/10/06 00:33:07;;;;;;;11.43;4.38;;;;;;;;;;4865338;29;20060;-76
2023/10/06 00:35:35;;;;;;;16.23;3.75;;;;;;;;;;4882197;29;20055;-76
2023/10/06 00:38:16;;;;;;;9.05;3.60;;;14.40;99.90;;;;;;4884538;29;20052;-70
2023/10/06 00:40:46;;;;;;;11.60;4.38;;;;;;;;;;4879165;29;20108;-70
2023/10/06 00:43:16;;;;;;;10.38;3.30;;;;;;;;;;4880275;29;20040;-70
2023/10/06 00:45:43;;;;;;;11.10;3.60;;;15.40;99.90;;;;;;4897462;29;20045;-70
2023/10/06 00:48:14;;;;;;;10.85;3.45;;;;;;;;;;4899286;29;20059;-70
2023/10/06 00:50:41;;;;;;;12.05;3.42;;;15.30;99.90;;;;;;4889481;29;20051;-70
2023/10/06 00:53:10;;;;;;;12.30;4.25;;;;;;;;;;4889510;29;20059;-75
2023/10/06 00:55:40;;;;;;;10.13;3.55;;;15.30;99.90;;;;;;4901330;29;20049;-76
2023/10/06 00:58:10;;;;;;;11.23;3.90;;;15.30;99.90;;;;;;4900239;29;20056;-75
2023/10/06 01:00:37;;;;;;;10.90;3.58;;;;;;;;;;4918594;29;20072;-75
2023/10/06 01:03:14;;;;;;;14.15;4.30;;;15.30;99.90;;;;;;4886282;29;20127;-74
2023/10/06 01:05:45;;;;;;;18.70;4.68;;;15.50;99.90;;;;;;4884547;29;20052;-70
2023/10/06 01:08:12;;;;;;;9.27;4.10;;;15.40;99.90;;;;;;4883692;29;20051;-70
2023/10/06 01:10:39;;;;;;;15.65;4.47;;;;;;;;;;4868415;29;20046;-70
2023/10/06 01:13:12;;;;;;;13.35;4.10;;;16.40;99.90;;;;;;4883630;29;20057;-70
2023/10/06 01:15:48;;;;;;;15.52;4.07;;;15.60;99.90;;;;;;4883610;29;20063;-71
2023/10/06 01:18:25;;;;;;;12.35;4.20;;;;;;;;;;4868263;29;20048;-70
2023/10/06 01:20:51;;;;;;;10.20;4.22;;;15.70;99.90;;;;;;4883407;29;20045;-70
2023/10/06 01:23:27;;;;;;;18.48;4.40;;;;;;;;;;4883333;29;20051;-71
2023/10/06 01:25:54;;;;;;;14.43;5.30;;;15.50;99.90;;;;;;4883632;29;20099;-71
2023/10/06 01:28:23;;;;;;;17.17;5.10;;;15.20;99.90;;;;;;4883635;29;20445;-70
2023/10/06 01:30:51;;;;;;;10.82;3.90;;;15.50;99.90;;;;;;4883314;29;20040;-71
2023/10/06 01:33:17;;;;;;;15.60;4.00;;;;;;;;;;4867951;29;20398;-70
2023/10/06 01:35:45;;;;;;;17.08;4.13;;;;;;;;;;4868050;29;20101;-70
2023/10/06 01:38:23;;;;;;;20.30;4.25;;;16.20;99.90;;;;;;4883176;29;20049;-71
2023/10/06 01:40:52;;;;;;;12.48;4.10;;;15.40;99.90;;;;;;4883103;29;20409;-71
2023/10/06 01:43:23;;;;;;;10.05;3.75;;;;;;;;;;4883257;29;20397;-71
2023/10/06 01:45:52;;;;;;;11.27;3.75;;;14.90;99.90;;;;;;4867720;29;20048;-71
2023/10/06 01:50:50;;;;;;;14.48;4.00;;;;;;;;;;4883146;29;20041;-71
2023/10/06 01:53:18;;;;;;;15.10;4.22;;;14.40;99.90;;;;;;4882988;29;20048;-71
2023/10/06 01:55:56;;;;;;;13.40;3.75;;;15.60;99.90;;;;;;4883038;29;20151;-71
2023/10/06 01:58:22;;;;;;;11.82;3.30;;;14.40;99.90;;;;;;4868124;29;20044;-70
2023/10/06 02:00:48;;;;;;;15.00;4.22;;;15.70;99.90;;;;;;4882788;29;20051;-71
2023/10/06 02:03:17;;;;;;;12.15;3.65;;;;;;;;;;4882850;29;20040;-71
2023/10/06 02:05:43;;;;;;;14.52;3.90;;;;;;;;;;4882617;29;20574;-70
2023/10/06 02:08:10;;;;;;;12.00;3.47;;;;;;;;;;4882697;29;20049;-71
2023/10/06 02:10:36;;;;;;;13.18;3.45;;;15.40;99.90;;;;;;4882860;29;20443;-70
2023/10/06 02:13:06;;;;;;;16.58;3.53;;;15.30;99.90;;;;;;4882830;29;20119;-71
2023/10/06 02:15:32;;;;;;;12.80;3.30;;;16.00;99.90;;;;;;4882389;29;20050;-70
2023/10/06 02:17:58;;;;;;;14.00;3.20;;;14.20;99.90;;;;;;4882254;29;20556;-71
2023/10/06 02:22:55;;;;;;;13.90;3.30;;;14.30;99.90;;;;;;4882330;29;20056;-72
2023/10/06 02:25:22;;;;;;;15.65;3.40;;;;;;;;;;4882497;29;20111;-71
2023/10/06 02:27:50;;;;;;;15.00;3.22;;;;;;;;;;4867122;29;20105;-71
2023/10/06 02:30:19;;;;;;;14.55;3.20;;;;;;;;;;4867206;29;20446;-69
2023/10/06 02:32:45;;;;;;;12.45;2.90;;;15.90;99.90;;;;;;4866957;29;20064;-70
2023/10/06 02:35:17;;;;;;;11.18;3.03;;;;;;;;;;4882040;29;20045;-70
2023/10/06 02:37:45;;;;;;;11.68;3.15;;;14.60;99.90;;;;;;4867500;29;20048;-70
2023/10/06 02:40:12;;;;;;;16.98;3.28;;;;;;;;;;4881980;29;20386;-71
2023/10/06 02:42:52;;;;;;;9.43;3.15;;;15.10;99.90;;;;;;4882015;29;20052;-71
2023/10/06 02:45:21;;;;;;;7.50;2.88;;;;;;;;;;4881886;29;20131;-70
2023/10/06 02:47:48;;;;;;;14.07;3.20;;;15.20;99.90;;;;;;4881837;29;20513;-70
2023/10/06 02:50:20;;;;;;;15.18;4.03;;;;;;;;;;4882262;29;20127;-70
2023/10/06 02:52:47;;;;;;;10.52;3.10;;;15.20;99.90;;;;;;4881788;29;20056;-69
2023/10/06 02:55:19;;;;;;;9.20;2.80;;;16.00;99.90;;;;;;4866750;29;20392;-70
2023/10/06 02:57:50;;;;;;;;;;;15.10;99.90;;;;;;4881646;29;20048;-70
2023/10/06 03:02:56;;;;;;;12.90;3.17;;;;;;;;;;4881836;29;20049;-71
2023/10/06 03:05:32;;;;;;;11.10;3.10;;;15.10;99.90;;;;;;4866972;29;20139;-70
2023/10/06 03:07:58;;;;;;;8.63;2.97;;;16.10;99.90;;;;;;4867531;29;20044;-71
2023/10/06 03:10:30;;;;;;;13.82;3.28;;;;;;;;;;4881532;29;20040;-77
2023/10/06 03:12:57;;;;;;;13.25;3.58;;;;;;;;;;4881865;29;20438;-77
2023/10/06 03:15:35;;;;;;;11.90;3.47;;;15.30;99.90;;;;;;4881459;29;20146;-77
2023/10/06 03:18:00;;;;;;;11.65;3.08;;;14.00;99.90;;;;;;4865946;29;20053;-77
2023/10/06 03:20:33;;;;;;;10.15;3.05;;;15.20;99.90;;;;;;4865930;29;20088;-77
2023/10/06 03:23:04;;;;;;;12.45;3.13;;;;;;;;;;4865822;29;20088;-77
2023/10/06 03:25:35;;;;;;;15.90;3.45;;;;;;;;;;4881314;29;20041;-77
2023/10/06 03:28:02;;;;;;;14.93;4.72;;;14.10;99.90;;;;;;4866719;29;20036;-77
2023/10/06 03:30:33;;;;;;;13.07;3.67;;;;;;;;;;4881472;29;20066;-77
2023/10/06 03:32:59;;;;;;;11.80;3.90;;;;;;;;;;4881043;29;20064;-77
2023/10/06 03:35:36;;;;;;;10.45;3.38;;;;;;;;;;4866198;29;20135;-77
2023/10/06 03:38:27;;;;;;;12.52;4.05;;;;;;;;;;4881184;29;20059;-77
2023/10/06 03:43:50;;;;;;;10.10;3.65;;;;;;;;;;4866319;29;20044;-77
2023/10/06 03:46:18;;;;;;;16.30;4.72;;;;;;;;;;4881088;29;20049;-77
2023/10/06 03:48:45;;;;;;;16.52;4.38;;;;;;;;;;4881321;29;20048;-77
2023/10/06 03:51:11;;;;;;;12.15;4.53;;;15.00;99.90;;;;;;4881087;29;20041;-77
2023/10/06 03:53:37;;;;;;;14.55;4.95;;;;;;;;;;4865894;29;20052;-77
2023/10/06 03:56:04;;;;;;;12.27;4.60;;;15.30;99.90;;;;;;4865981;29;20063;-77
2023/10/06 03:58:32;;;;;;;17.95;4.65;;;;;;;;;;4881158;29;20087;-77
2023/10/06 04:00:58;;;;;;;15.40;5.03;;;15.30;99.90;;;;;;4897971;29;20044;-77
2023/10/06 04:03:24;;;;;;;20.25;6.13;;;;;;;;;;4880982;29;20045;-77
2023/10/06 04:05:51;;;;;;;11.38;4.85;;;15.00;99.90;;;;;;4881114;29;20619;-77
2023/10/06 04:08:20;;;;;;;10.18;4.57;;;14.90;99.90;;;;;;4880993;29;20044;-77
2023/10/06 04:10:53;;;;;;;15.57;4.90;;;;;;;;;;4868091;29;20041;-77
2023/10/06 04:13:20;;;;;;;14.40;4.85;;;;;;;;;;4886810;29;20501;-75
2023/10/06 04:15:49;;;;;;;14.65;5.60;;;;;;;;;;4885508;29;20060;-74
2023/10/06 04:18:17;;;;;;;15.40;5.43;;;;;;;;;;4901405;29;20048;-76
2023/10/06 04:20:45;;;;;;;19.58;5.50;;;15.00;99.90;;;;;;4885434;29;20048;-76
2023/10/06 04:23:12;;;;;;;24.48;5.60;;;;;;;;;;4900325;29;20104;-75
2023/10/06 04:25:42;;;;;;;17.75;6.10;;;15.20;99.90;;;;;;4885650;29;20044;-75
2023/10/06 04:28:09;;;;;;;15.10;5.20;;;15.10;99.90;;;;;;4886640;29;20045;-76
2023/10/06 04:30:38;;;;;;;16.90;5.68;;;15.10;99.90;;;;;;4884456;29;20040;-77
2023/10/06 04:33:05;;;;;;;13.93;5.90;;;15.00;99.90;;;;;;4884853;29;20068;-76
2023/10/06 04:35:32;;;;;;;16.17;5.28;;;15.10;99.90;;;;;;4884536;29;20397;-77
2023/10/06 04:37:59;;;;;;;19.48;5.20;;;15.90;99.90;;;;;;4884428;29;20055;-76
2023/10/06 04:40:27;;;;;;;16.58;5.30;;;;;;;;;;4869185;29;20048;-76
2023/10/06 04:42:53;;;;;;;19.70;5.95;;;15.70;99.90;;;;;;4868962;29;20048;-76
2023/10/06 04:45:19;;;;;;;13.43;4.75;;;;;;;;;;4884058;29;20048;-76
2023/10/06 04:47:45;;;;;;;16.10;5.22;;;15.60;99.90;;;;;;4884179;29;20083;-76
2023/10/06 04:50:12;;;;;;;16.85;5.05;;;;;;;;;;4868783;29;20466;-76
2023/10/06 04:52:46;;;;;;;22.85;5.88;;;15.90;99.90;;;;;;4884063;29;20045;-75
2023/10/06 04:55:13;;;;;;;14.30;5.00;;;14.50;99.90;;;;;;4868753;29;20057;-75
2023/10/06 04:57:41;;;;;;;19.40;5.75;;;15.10;99.90;;;;;;4883921;29;20070;-75
2023/10/06 05:00:21;;;;;;;14.75;5.28;;;14.80;99.90;;;;;;4883855;29;20081;-75
2023/10/06 05:02:47;;;;;;;18.23;5.45;;;;;;;;;;4869872;29;20045;-75
2023/10/06 05:05:20;;;;;;;18.50;5.63;;;15.30;99.90;;;;;;4883813;29;20036;-75
2023/10/06 05:07:53;;;;;;;17.20;4.85;;;15.60;99.90;;;;;;4883606;29;20494;-75
2023/10/06 05:10:25;;;;;;;14.98;5.30;;;;;;;;;;4883604;29;20083;-75
2023/10/06 05:12:52;;;;;;;19.42;5.75;;;15.10;99.90;;;;;;4868521;29;20135;-75
2023/10/06 05:15:26;;;;;;;19.80;5.75;;;15.00;99.90;;;;;;4883919;29;20127;-75
2023/10/06 05:17:55;;;;;;;19.70;4.97;;;14.70;99.90;;;;;;4869202;29;20049;-75
2023/10/06 05:20:27;;;;;;;17.50;5.22;;;;;;;;;;4883605;29;20402;-75
2023/10/06 05:22:53;;;;;;;17.48;4.40;;;;;;;;;;4883558;29;20104;-75
2023/10/06 05:25:19;;;;;;;16.25;5.47;;;;;;;;;;4883514;29;20048;-75
2023/10/06 05:27:47;;;;;;;13.35;4.45;;;13.80;99.90;;;;;;4883369;29;20040;-75
2023/10/06 05:30:13;;;;;;;11.93;4.22;;;;;;;;;;4868265;29;20385;-75
2023/10/06 05:32:43;;;;;;;16.52;4.75;;;15.10;99.90;;;;;;4883172;29;20057;-76
2023/10/06 05:35:13;;;;;;;17.00;4.93;;;14.90;99.90;;;;;;4867906;29;20037;-75
2023/10/06 05:37:39;;;;;;;18.25;5.15;;;;;;;;;;4883260;29;20051;-75
2023/10/06 05:40:06;;;;;;;15.45;4.78;;;14.70;99.90;;;;;;4868122;29;20393;-75
2023/10/06 05:42:33;;;;;;;17.20;5.07;;;;;;;;;;4883199;29;20045;-75
2023/10/06 05:45:01;;;;;;;19.48;6.25;;;;;;;;;;4867821;29;20071;-75
2023/10/06 05:47:28;;;;;;;14.27;5.68;;;;;;;;;;4868177;29;20113;-75
2023/10/06 05:49:54;;;;;;;18.02;5.28;;;;;;;;;;4867880;29;20055;-75
2023/10/06 05:52:22;;;;;;;18.67;5.65;;;;;;;;;;4883000;29;20051;-75
2023/10/06 05:54:49;;;;;;;15.13;5.32;;;15.90;99.90;;;;;;4882985;29;20108;-75
2023/10/06 05:57:16;;;;;;;16.60;5.07;;;;;;;;;;4867625;29;20048;-76
2023/10/06 05:59:43;;;;;;;15.98;5.40;;;;;;;;;;4882808;29;20053;-76
2023/10/06 06:02:09;;;;;;;17.60;5.10;;;;;;;;;;4882788;29;20056;-75
2023/10/06 06:04:38;;;;;;;19.42;5.63;;;;;;;;;;4882673;29;20056;-75
2023/10/06 06:07:08;;;;;;;19.30;5.28;;;15.20;99.90;;;;;;4882779;29;20040;-75
2023/10/06 06:09:34;;;;;;;18.35;5.80;;;;;;;;;;4883083;29;20048;-75
2023/10/06 06:12:00;;;;;;;19.88;5.18;;;;;;;;;;4882736;29;20442;-76
2023/10/06 06:14:26;;;;;;;20.52;6.70;;;;;;;;;;4882957;29;20044;-75
2023/10/06 06:16:52;;;;;;;18.50;5.97;;;;;;;;;;4882800;29;20083;-75
2023/10/06 06:19:20;;;;;;;14.10;5.32;;;;;;;;;;4882765;29;20064;-75
2023/10/06 06:21:46;;;;;;;22.45;6.28;;;;;;;;;;4882488;29;20132;-75
2023/10/06 06:24:16;;;;;;;17.90;5.75;;;;;;;;;;4882337;29;20396;-75
2023/10/06 06:26:43;;;;;;;15.77;4.90;;;;;;;;;;4882692;29;20055;-74
2023/10/06 06:29:09;;;;;;;19.25;6.22;;;;;;;;;;4882398;29;20218;-75
2023/10/06 06:31:35;;;;;;;15.43;5.40;;;;;;;;;;4866629;29;20076;-76
2023/10/06 06:34:04;;;;;;;15.25;5.40;;;14.20;99.90;;;;;;4881375;29;20048;-75
2023/10/06 06:36:34;;;;;;;14.35;5.28;;;15.00;99.90;;;;;;4882441;29;20096;-74
2023/10/06 06:39:00;;;;;;;15.73;5.47;;;;;;;;;;4898869;29;20041;-75
2023/10/06 06:41:26;;;;;;;19.08;5.10;;;15.10;99.90;;;;;;4882416;29;20370;-75
2023/10/06 06:43:59;;;;;;;26.50;5.57;;;;;;;;;;4881933;29;20048;-75
2023/10/06 06:46:29;;;;;;;19.33;5.93;;;15.00;99.90;;;;;;4882001;29;20127;-75
2023/10/06 06:48:56;;;;;;;20.48;5.10;;;;;;;;;;4882096;29;20045;-76
2023/10/06 06:51:33;;;;;;;22.23;5.65;;;;;;;;;;4866577;29;20464;-75
2023/10/06 06:53:59;;;;;;;22.35;5.10;;;;;;;;;;4882314;29;20397;-76
2023/10/06 06:56:28;;;;;;;12.20;4.25;;;;;;;;;;4866470;29;20040;-76
2023/10/06 06:58:55;;;;;;;25.25;5.05;;;16.00;99.90;;;;;;4881877;29;20056;-76
2023/10/06 07:01:21;;;;;;;20.55;4.97;;;;;;;;;;4881964;29;20064;-76
2023/10/06 07:03:47;;;;;;;17.48;5.53;;;;;;;;;;4866270;29;20055;-76
2023/10/06 07:06:16;;;;;;;18.27;5.20;;;;;;;;;;4881960;29;20099;-76
2023/10/06 07:08:42;;;;;;;21.75;4.55;;;;;;;;;;4881971;29;20052;-75
2023/10/06 07:11:10;;;;;;;22.60;5.68;;;14.80;99.90;;;;;;4866201;29;20048;-75
2023/10/06 07:13:36;;;;;;;22.02;4.80;;;;;;;;;;4866427;29;20104;-75
2023/10/06 07:16:05;;;;;;;19.08;5.45;;;;;;;;;;4881842;29;20048;-75
2023/10/06 07:18:31;;;;;;;19.58;5.18;;;15.70;99.90;;;;;;4881847;29;20056;-75
2023/10/06 07:20:57;;;;;;;20.52;4.70;;;15.60;99.90;;;;;;4881745;29;20405;-75
2023/10/06 07:23:23;;;;;;;15.73;5.32;;;15.40;99.90;;;;;;4881621;29;20048;-75
2023/10/06 07:25:49;;;;;;;16.17;5.28;;;14.80;99.90;;;;;;4881530;29;20040;-75
2023/10/06 07:28:14;;;;;;;21.38;5.32;;;16.20;99.90;;;;;;4866470;29;20037;-75
2023/10/06 07:30:41;;;;;;;22.58;5.53;;;;;;;;;;4881672;29;20045;-75
2023/10/06 07:33:07;;;;;;;16.13;4.97;;;;;;;;;;4872302;29;20065;-74
2023/10/06 07:35:41;;;;;;;12.20;4.63;;;;;;;;;;4896779;29;20048;-74
2023/10/06 07:38:10;;;;;;;18.38;4.43;;;;;;;;;;4897314;29;20084;-74
2023/10/06 07:40:38;;;;;;;24.67;5.53;;;;;;;;;;4896926;29;20044;-74
2023/10/06 07:43:09;;;;;;;19.52;5.18;;;;;;;;;;4896665;29;20060;-75
2023/10/06 07:45:39;;;;;;;18.80;5.53;;;;;;;;;;4880487;29;20114;-74
2023/10/06 07:48:09;;;;;;;20.40;4.88;;;14.30;99.90;;;;;;4886645;29;20040;-74
2023/10/06 07:50:35;;;;;;;16.27;4.68;;;;;;;;;;4868797;29;20049;-75
2023/10/06 07:53:02;;;;;;;22.38;5.60;;;;;;;;;;4882359;29;20485;-76
2023/10/06 07:55:28;;;;;;;23.17;5.10;;;;;;;;;;4882143;29;20086;-75
2023/10/06 07:57:54;;;;;;;18.33;5.85;;;;;;;;;;4882199;29;20041;-74
2023/10/06 08:00:27;;;;;;;13.43;5.13;;;16.30;99.90;;;;;;4867088;29;20040;-75
2023/10/06 08:03:04;;;;;;;20.90;5.53;;;15.40;99.90;;;;;;4882064;29;20139;-75
2023/10/06 08:05:30;;;;;;;20.65;6.18;;;;;;;;;;4881296;29;20048;-75
2023/10/06 08:07:59;;;;;;;16.85;5.30;;;16.20;99.90;;;;;;4881548;29;20052;-75
2023/10/06 08:10:25;;;;;;;19.80;5.22;;;;;;;;;;4881214;29;20036;-76
2023/10/06 08:12:56;;;;;;;20.25;5.35;;;15.60;99.90;;;;;;4881241;29;20080;-76
2023/10/06 08:15:22;;;;;;;17.13;5.25;;;;;;;;;;4881291;29;20101;-76
2023/10/06 08:17:52;;;;;;;16.63;5.25;;;15.80;99.90;;;;;;4865768;29;20127;-75
2023/10/06 08:20:20;;;;;;;20.77;4.78;;;;;;;;;;4881375;29;20068;-76
2023/10/06 08:22:46;;;;;;;21.35;5.28;;;16.00;99.90;;;;;;4880856;29;20473;-75
2023/10/06 08:25:24;;;;;;;23.70;6.03;;;;;;;;;;4880899;29;20043;-76
2023/10/06 08:27:50;;;;;;;19.42;5.43;;;;;;;;;;4881268;29;20409;-75
2023/10/06 08:30:18;;;;;;;23.92;5.82;;;16.10;99.90;;;;;;4881037;29;20041;-76
2023/10/06 08:32:52;;;;;;;20.75;4.88;;;16.00;99.90;;;;;;4880802;29;20088;-77
2023/10/06 08:35:19;;;;;;;17.55;4.57;;;16.80;99.90;;;;;;4881072;29;20052;-75
2023/10/06 08:37:51;;;;;;;18.25;4.70;;;17.10;99.90;;;;;;4881153;29;20060;-74
2023/10/06 08:40:19;;;;;;;28.70;6.13;;;17.00;99.90;;;;;;4880888;29;20045;-76
2023/10/06 08:42:51;;;;;;;20.60;5.40;;;16.30;99.90;;;;;;4880601;29;20048;-75
2023/10/06 08:45:22;;;;;;;17.20;5.35;;;16.10;99.90;;;;;;4880748;29;20397;-76
2023/10/06 08:47:59;;;;;;;21.85;5.57;;;16.30;99.90;;;;;;4880688;29;20045;-75
2023/10/06 08:50:32;;;;;;;22.63;4.57;;;15.30;99.90;;;;;;4880958;29;20450;-76
2023/10/06 08:52:58;;;;;;;22.17;5.40;;;;;;;;;;4880967;29;20045;-76
2023/10/06 08:55:27;;;;;;;19.73;5.78;;;16.30;99.90;;;;;;4880543;29;20055;-69
2023/10/06 08:57:54;;;;;;;16.73;4.88;;;16.30;99.90;;;;;;4883833;29;20124;-70
2023/10/06 09:00:25;;;;;;;18.50;5.28;;;16.60;99.90;;;;;;4868772;29;20371;-69
2023/10/06 09:02:55;;;;;;;16.70;4.72;;;16.50;99.90;;;;;;4883755;29;20047;-70
2023/10/06 09:05:24;;;;;;;21.00;4.88;;;15.90;99.90;;;;;;4883892;29;20131;-70
2023/10/06 09:08:05;;;;;;;15.35;4.30;;;;;;;;;;4883767;29;20043;-70
2023/10/06 09:10:37;;;;;;;18.42;5.07;;;16.00;99.90;;;;;;4883915;29;20103;-70
2023/10/06 09:13:05;;;;;;;22.88;5.00;;;17.30;99.90;;;;;;4884047;29;20066;-70
2023/10/06 09:15:32;;;;;;;16.52;4.45;;;16.60;99.90;;;;;;4883783;29;20127;-70
2023/10/06 09:17:59;;;;;;;20.80;4.80;;;16.50;99.90;;;;;;4900486;29;20037;-69
2023/10/06 09:20:36;;;;;;;10.93;3.83;;;16.70;99.90;;;;;;4883656;29;20084;-70
2023/10/06 09:23:03;;;;;;;14.77;4.68;;;16.60;99.90;;;;;;4883440;29;20123;-70
2023/10/06 09:25:50;;;;;;;22.65;5.82;;;16.60;99.90;;;;;;4899298;29;20461;-71
2023/10/06 09:28:17;;;;;;;20.80;4.78;;;;;;;;;;4868119;29;20549;-70
2023/10/06 09:31:05;;;;;;;15.52;4.07;;;;;;;;;;4883567;29;20052;-70
2023/10/06 09:33:37;;;;;;;24.65;4.93;;;16.80;99.90;;;;;;4867959;29;20485;-70
2023/10/06 09:36:07;;;;;;;18.15;3.72;;;15.90;99.90;;;;;;4868241;29;20099;-70
2023/10/06 09:38:35;;;;;;;19.95;3.95;;;17.20;99.90;;;;;;4883643;29;20146;-70
2023/10/06 09:41:01;;;;;;;19.20;4.18;;;16.20;99.90;;;;;;4883258;29;20056;-71
2023/10/06 09:43:38;;;;;;;20.42;4.45;;;17.00;99.90;;;;;;4883559;29;20048;-70
2023/10/06 09:46:11;;;;;;;23.48;4.60;;;17.10;99.90;;;;;;4883232;29;20541;-71
2023/10/06 09:48:42;;;;;;;23.25;4.03;;;18.10;99.90;;;;;;4883426;29;20489;-71
2023/10/06 09:51:09;;;;;;;19.30;3.83;;;17.30;99.90;;;;;;4883378;29;20076;-71
2023/10/06 09:53:43;;;;;;;18.52;3.63;;;18.10;99.90;;;;;;4883560;29;20059;-70
2023/10/06 09:56:11;;;;;;;18.23;3.60;;;17.70;99.90;;;;;;4867640;29;20044;-70
2023/10/06 09:58:48;;;;;;;16.40;3.75;;;17.40;99.90;;;;;;4883193;29;20049;-70
2023/10/06 10:01:15;;;;;;;24.33;4.32;;;17.50;99.90;;;;;;4900080;29;20055;-69
2023/10/06 10:03:44;;;;;;;20.63;4.45;;;17.90;99.90;;;;;;4883316;29;20083;-70
2023/10/06 10:06:10;;;;;;;18.75;4.60;;;;;;;;;;4883046;29;20055;-70
2023/10/06 10:08:41;;;;;;;19.80;4.15;;;18.40;99.90;;;;;;4883035;29;20123;-70
2023/10/06 10:11:28;;;;;;;19.30;4.15;;;17.90;99.90;;;;;;4868187;29;20087;-70
2023/10/06 10:14:26;;;;;;;21.42;4.00;;;16.90;99.90;;;;;;4882911;29;20084;-70
2023/10/06 10:17:18;;;;;;;17.05;3.53;;;18.60;99.90;;;;;;4882527;29;20056;-69
2023/10/06 10:19:46;;;;;;;16.88;3.97;;;18.70;99.90;;;;;;4883058;29;20484;-69
2023/10/06 10:22:14;;;;;;;17.20;4.10;;;17.90;99.90;;;;;;4882847;29;20044;-70
2023/10/06 10:24:40;;;;;;;20.23;4.40;;;18.30;99.90;;;;;;4882521;29;20136;-70
2023/10/06 10:27:13;;;;;;;16.55;3.25;;;18.10;99.90;;;;;;4882948;29;20044;-70
2023/10/06 10:29:41;;;;;;;18.15;3.60;;;;;;;;;;4867181;29;20041;-70
2023/10/06 10:32:23;;;;;;;20.92;3.90;;;19.10;99.90;;;;;;4882875;29;20527;-71
2023/10/06 10:35:13;;;;;;;23.38;3.67;;;18.40;99.90;;;;;;4883007;29;20049;-70
2023/10/06 10:37:56;;;;;;;12.88;3.15;;;19.00;99.90;;;;;;4883004;29;20045;-71
2023/10/06 10:40:27;;;;;;;18.02;3.60;;;18.50;99.90;;;;;;4873851;29;20073;-71
2023/10/06 10:43:00;;;;;;;14.35;3.55;;;18.50;99.90;;;;;;4895775;29;20045;-70
2023/10/06 10:45:36;;;;;;;16.90;3.85;;;18.30;99.90;;;;;;4882491;29;20045;-70
2023/10/06 10:48:10;;;;;;;20.15;3.85;;;18.70;99.90;;;;;;4882733;29;20514;-70
2023/10/06 10:50:55;;;;;;;16.65;3.45;;;17.60;99.90;;;;;;4882267;29;20049;-70
2023/10/06 10:53:21;;;;;;;16.13;3.85;;;18.00;99.90;;;;;;4882309;29;20072;-71
2023/10/06 10:55:48;;;;;;;16.15;3.70;;;18.40;99.90;;;;;;4898761;29;20048;-69
2023/10/06 10:58:42;;;;;;;19.67;4.05;;;18.90;99.90;;;;;;4882851;29;20059;-69
2023/10/06 11:01:27;;;;;;;20.27;3.95;;;18.30;99.90;;;;;;4899895;29;20040;-70
2023/10/06 11:04:29;;;;;;;14.70;3.15;;;18.60;99.90;;;;;;4879045;29;20084;-70
2023/10/06 11:06:58;;;;;;;20.13;4.17;;;19.20;99.90;;;;;;4882733;29;20048;-77
2023/10/06 11:09:36;;;;;;;16.38;3.70;;;18.80;99.90;;;;;;4881908;29;20281;-77
2023/10/06 11:12:19;;;;;;;13.73;3.53;;;18.60;99.90;;;;;;4881945;29;20070;-76
2023/10/06 11:14:51;;;;;;;17.17;4.28;;;18.60;99.90;;;;;;4881808;29;20102;-77
2023/10/06 11:17:22;;;;;;;;;;;18.80;99.90;;;;;;4881975;29;20127;-77
2023/10/06 11:20:00;;;;;;;22.88;4.07;;;19.40;99.90;;;;;;4881299;29;19919;-76
2023/10/06 11:22:27;;;;;;;19.20;4.47;;;19.30;99.90;;;;;;4881707;29;20142;-76
2023/10/06 11:24:57;;;;;;;16.35;3.67;;;18.40;99.90;;;;;;4881400;29;20497;-76
2023/10/06 11:27:24;;;;;;;15.95;3.58;;;18.50;99.90;;;;;;4866610;29;20080;-77
2023/10/06 11:29:57;;;;;;;12.23;3.22;;;18.10;99.90;;;;;;4866156;29;20056;-76
2023/10/06 11:32:26;;;;;;;14.63;3.63;;;;;;;;;;4881380;29;20105;-75
2023/10/06 11:34:51;;;;;;;19.15;3.70;;;19.70;99.90;;;;;;4866237;29;20517;-77
2023/10/06 11:37:19;;;;;;;17.30;3.72;;;18.90;99.90;;;;;;4881438;29;20087;-77
2023/10/06 11:39:52;;;;;;;20.92;4.25;;;18.70;99.90;;;;;;4881549;29;20045;-76
2023/10/06 11:42:24;;;;;;;17.80;3.40;;;19.70;99.90;;;;;;4881389;29;20048;-77
2023/10/06 11:44:54;;;;;;;19.25;4.22;;;19.50;99.90;;;;;;4881291;29;20049;-76
2023/10/06 11:47:24;;;;;;;16.38;3.63;;;19.30;99.90;;;;;;4881214;29;20037;-76
2023/10/06 11:49:57;;;;;;;17.60;3.88;;;18.40;99.90;;;;;;4881201;29;20143;-77
2023/10/06 11:52:23;;;;;;;16.30;3.38;;;20.10;99.90;;;;;;4881148;29;20096;-76
2023/10/06 11:54:49;;;;;;;20.25;3.90;;;19.80;99.90;;;;;;4865874;29;20049;-77
2023/10/06 11:57:15;;;;;;;18.08;3.70;;;20.30;99.90;;;;;;4866024;29;20108;-76
2023/10/06 11:59:52;;;;;;;17.23;4.13;;;19.00;99.90;;;;;;4881288;29;20466;-77
2023/10/06 12:02:19;;;;;;;13.73;3.08;;;18.70;99.90;;;;;;4881062;29;20047;-76
2023/10/06 12:04:45;;;;;;;15.65;3.45;;;;;;;;;;4865557;29;20040;-76
2023/10/06 12:07:21;;;;;;;17.55;3.72;;;19.10;99.90;;;;;;4881147;29;20636;-77
2023/10/06 12:09:48;;;;;;;19.83;3.97;;;19.60;99.90;;;;;;4881104;29;20052;-77
2023/10/06 12:12:16;;;;;;;15.50;3.42;;;19.60;99.90;;;;;;4881358;29;20067;-76
2023/10/06 12:14:43;;;;;;;14.43;3.22;;;19.90;99.90;;;;;;4881348;29;20053;-77
2023/10/06 12:17:12;;;;;;;19.98;3.47;;;;;;;;;;4881090;29;20052;-76
2023/10/06 12:19:42;;;;;;;23.00;3.08;;;20.10;99.90;;;;;;4865902;29;20661;-77
2023/10/06 12:22:08;;;;;;;16.73;3.20;;;19.90;99.90;;;;;;4865772;29;20052;-76
2023/10/06 12:24:34;;;;;;;15.25;3.55;;;19.60;99.90;;;;;;4880769;29;20052;-76
2023/10/06 12:27:00;;;;;;;15.57;3.25;;;20.00;99.90;;;;;;4865745;29;20124;-76
2023/10/06 12:29:28;;;;;;;18.45;3.47;;;18.20;99.90;;;;;;4880852;29;20382;-76
2023/10/06 12:31:56;;;;;;;20.92;3.88;;;18.10;99.90;;;;;;4882707;29;20071;-77
2023/10/06 12:34:23;;;;;;;23.13;3.78;;;19.90;99.90;;;;;;4884461;29;20087;-77
2023/10/06 12:36:49;;;;;;;20.67;3.63;;;19.60;99.90;;;;;;4884557;29;20052;-71
2023/10/06 12:39:37;;;;;;;24.55;3.78;;;19.90;99.90;;;;;;4869287;29;20052;-70
2023/10/06 12:42:07;;;;;;;15.25;3.40;;;19.40;99.90;;;;;;4884745;29;20049;-70
2023/10/06 12:44:39;;;;;;;18.38;3.65;;;20.10;99.90;;;;;;4868938;29;20048;-70
2023/10/06 12:47:10;;;;;;;14.82;3.17;;;19.70;99.90;;;;;;4868902;29;20092;-70
2023/10/06 12:49:37;;;;;;;16.27;3.10;;;;;;;;;;4884580;29;20076;-71
2023/10/06 12:52:03;;;;;;;14.35;3.38;;;19.50;99.90;;;;;;4868861;29;20045;-71
2023/10/06 12:54:29;;;;;;;15.70;4.07;;;19.90;99.90;;;;;;4884072;29;20076;-71
2023/10/06 12:56:55;;;;;;;16.40;3.97;;;19.00;99.90;;;;;;4868676;29;20088;-71
2023/10/06 12:59:21;;;;;;;19.85;4.72;;;19.90;99.90;;;;;;4901036;29;20090;-70
2023/10/06 13:01:49;;;;;;;17.88;4.07;;;18.90;99.90;;;;;;4884115;29;20092;-71
2023/10/06 13:04:15;;;;;;;18.38;4.00;;;18.30;99.90;;;;;;4883977;29;20060;-71
2023/10/06 13:06:41;;;;;;;20.00;3.55;;;;;;;;;;4883804;29;20044;-71
2023/10/06 13:09:08;;;;;;;16.08;3.45;;;19.80;99.90;;;;;;4883893;29;20076;-70
2023/10/06 13:11:35;;;;;;;14.50;2.80;;;18.00;99.90;;;;;;4883824;29;20564;-70
2023/10/06 13:14:03;;;;;;;23.85;3.53;;;20.00;99.90;;;;;;4868365;29;20054;-70
2023/10/06 13:16:32;;;;;;;14.20;3.17;;;19.90;99.90;;;;;;4884037;29;20466;-69
2023/10/06 13:18:58;;;;;;;14.63;4.25;;;19.90;99.90;;;;;;4883649;29;20052;-69
2023/10/06 13:21:24;;;;;;;17.88;3.85;;;;;;;;;;4883527;29;20068;-70
2023/10/06 13:23:51;;;;;;;17.67;4.22;;;;;;;;;;4883603;29;20050;-70
2023/10/06 13:26:19;;;;;;;14.93;4.03;;;;;;;;;;4883494;29;20510;-70
2023/10/06 13:28:45;;;;;;;19.20;3.75;;;19.80;99.90;;;;;;4883363;29;20408;-71
2023/10/06 13:31:11;;;;;;;17.52;3.92;;;17.70;99.90;;;;;;4883331;29;20516;-71
2023/10/06 13:33:37;;;;;;;17.02;3.75;;;18.80;99.90;;;;;;4867904;29;20068;-71
2023/10/06 13:36:05;;;;;;;18.63;3.70;;;18.40;99.90;;;;;;4883637;29;20383;-71
2023/10/06 13:38:34;;;;;;;19.42;3.33;;;19.50;99.90;;;;;;4883347;29;20087;-70
2023/10/06 13:41:01;;;;;;;17.48;4.07;;;19.60;99.90;;;;;;4883488;29;20052;-70